createdAt,value
2018-12-23T00:00:37.749Z,540.09
2018-12-23T00:01:37.721Z,537.06
2018-12-23T00:02:37.708Z,543.14
2018-12-23T00:03:37.719Z,542.05
2018-12-23T00:04:37.726Z,542.49
2018-12-23T00:05:37.683Z,540.85
2018-12-23T00:06:37.671Z,543.14
2018-12-23T00:07:37.661Z,544.34
2018-12-23T00:08:37.662Z,541.16
2018-12-23T00:09:37.661Z,544.06
2018-12-23T00:10:37.630Z,541.43
2018-12-23T00:11:37.618Z,543.18
2018-12-23T00:12:37.614Z,541.49
2018-12-23T00:13:37.598Z,540.93
2018-12-23T00:14:37.580Z,543.72
2018-12-23T00:15:37.590Z,541.68
2018-12-23T00:16:38.980Z,543.59
2018-12-23T00:17:37.550Z,540.62
2018-12-23T00:18:37.543Z,543.28
2018-12-23T00:19:37.553Z,543.07
2018-12-23T00:20:38.019Z,544.52
2018-12-23T00:21:37.523Z,541.22
2018-12-23T00:22:37.501Z,540.71
2018-12-23T00:23:37.486Z,542.80
2018-12-23T00:24:37.500Z,540.24
2018-12-23T00:25:37.458Z,541.91
2018-12-23T00:26:37.480Z,543.22
2018-12-23T00:27:37.464Z,544.36
2018-12-23T00:28:37.443Z,539.95
2018-12-23T00:29:37.445Z,543.14
2018-12-23T00:30:37.418Z,543.27
2018-12-23T00:31:37.415Z,544.43
2018-12-23T00:32:37.404Z,540.08
2018-12-23T00:33:37.383Z,540.92
2018-12-23T00:34:37.371Z,542.57
2018-12-23T00:35:37.362Z,540.01
2018-12-23T00:36:38.496Z,546.49
2018-12-23T00:37:37.339Z,540.85
2018-12-23T00:38:37.364Z,541.13
2018-12-23T00:39:37.333Z,541.54
2018-12-23T00:40:37.325Z,541.68
2018-12-23T00:41:37.304Z,540.56
2018-12-23T00:42:37.283Z,540.27
2018-12-23T00:43:37.276Z,542.42
2018-12-23T00:44:37.550Z,541.93
2018-12-23T00:45:37.253Z,542.01
2018-12-23T00:46:37.264Z,542.42
2018-12-23T00:47:37.276Z,541.89
2018-12-23T00:48:37.242Z,541.78
2018-12-23T00:49:37.215Z,542.63
2018-12-23T00:50:37.209Z,542.19
2018-12-23T00:51:37.193Z,540.37
2018-12-23T00:52:37.205Z,540.39
2018-12-23T00:53:37.171Z,542.85
2018-12-23T00:54:37.160Z,542.50
2018-12-23T00:55:37.166Z,544.04
2018-12-23T00:56:37.158Z,540.46
2018-12-23T00:57:37.134Z,544.65
2018-12-23T00:58:37.118Z,542.78
2018-12-23T00:59:37.140Z,542.15
2018-12-23T01:00:37.094Z,543.44
2018-12-23T01:01:37.118Z,544.88
2018-12-23T01:02:37.110Z,541.83
2018-12-23T01:03:37.059Z,541.59
2018-12-23T01:04:39.001Z,542.62
2018-12-23T01:05:37.045Z,541.28
2018-12-23T01:06:37.038Z,539.12
2018-12-23T01:07:37.033Z,540.86
2018-12-23T01:08:37.030Z,542.59
2018-12-23T01:09:37.003Z,542.54
2018-12-23T01:10:36.992Z,541.84
2018-12-23T01:11:36.985Z,540.65
2018-12-23T01:12:39.001Z,541.64
2018-12-23T01:13:36.968Z,541.01
2018-12-23T01:14:36.953Z,540.35
2018-12-23T01:15:37.091Z,538.98
2018-12-23T01:16:36.943Z,541.46
2018-12-23T01:17:36.917Z,542.69
2018-12-23T01:18:36.911Z,539.83
2018-12-23T01:19:37.512Z,543.54
2018-12-23T01:20:36.905Z,543.27
2018-12-23T01:21:36.893Z,541.00
2018-12-23T01:22:37.143Z,538.45
2018-12-23T01:23:36.885Z,539.72
2018-12-23T01:24:36.858Z,542.04
2018-12-23T01:25:36.841Z,537.85
2018-12-23T01:26:39.003Z,541.59
2018-12-23T01:27:36.960Z,542.45
2018-12-23T01:28:36.817Z,538.70
2018-12-23T01:29:36.814Z,541.03
2018-12-23T01:30:36.784Z,540.93
2018-12-23T01:31:36.801Z,542.69
2018-12-23T01:32:36.764Z,542.60
2018-12-23T01:33:36.768Z,539.49
2018-12-23T01:34:37.250Z,541.25
2018-12-23T01:35:37.276Z,545.25
2018-12-23T01:36:38.000Z,542.25
2018-12-23T01:37:36.711Z,542.07
2018-12-23T01:38:36.701Z,540.63
2018-12-23T01:39:36.690Z,540.34
2018-12-23T01:40:36.685Z,542.22
2018-12-23T01:41:36.824Z,543.66
2018-12-23T01:42:36.722Z,539.62
2018-12-23T01:43:36.649Z,539.93
2018-12-23T01:44:36.636Z,544.46
2018-12-23T01:45:36.786Z,540.01
2018-12-23T01:46:38.003Z,539.72
2018-12-23T01:47:36.686Z,540.36
2018-12-23T01:48:36.624Z,540.23
2018-12-23T01:49:36.641Z,540.24
2018-12-23T01:50:36.590Z,541.29
2018-12-23T01:51:36.577Z,539.35
2018-12-23T01:52:36.589Z,542.15
2018-12-23T01:53:36.542Z,541.66
2018-12-23T01:54:36.532Z,540.76
2018-12-23T01:55:36.512Z,542.02
2018-12-23T01:56:36.506Z,542.46
2018-12-23T01:57:36.500Z,540.33
2018-12-23T01:58:37.012Z,542.60
2018-12-23T01:59:36.476Z,543.58
2018-12-23T02:00:36.568Z,541.25
2018-12-23T02:01:36.455Z,536.05
2018-12-23T02:02:36.440Z,541.15
2018-12-23T02:03:36.428Z,539.46
2018-12-23T02:04:36.430Z,540.42
2018-12-23T02:05:36.407Z,541.33
2018-12-23T02:06:36.399Z,542.03
2018-12-23T02:07:36.380Z,540.16
2018-12-23T02:08:36.387Z,539.57
2018-12-23T02:09:36.403Z,539.98
2018-12-23T02:10:36.371Z,540.84
2018-12-23T02:11:36.360Z,540.96
2018-12-23T02:12:36.334Z,541.30
2018-12-23T02:13:36.331Z,539.77
2018-12-23T02:14:36.308Z,541.79
2018-12-23T02:15:39.022Z,541.14
2018-12-23T02:16:36.292Z,541.00
2018-12-23T02:17:36.284Z,540.80
2018-12-23T02:18:36.288Z,540.76
2018-12-23T02:19:36.255Z,541.16
2018-12-23T02:20:36.239Z,538.95
2018-12-23T02:21:36.240Z,543.42
2018-12-23T02:22:36.249Z,540.41
2018-12-23T02:23:36.237Z,538.45
2018-12-23T02:24:36.211Z,540.91
2018-12-23T02:25:36.206Z,540.54
2018-12-23T02:26:36.288Z,538.09
2018-12-23T02:27:36.193Z,539.57
2018-12-23T02:28:36.191Z,541.50
2018-12-23T02:29:36.169Z,541.50
2018-12-23T02:30:36.171Z,540.25
2018-12-23T02:31:36.129Z,539.60
2018-12-23T02:32:36.119Z,541.56
2018-12-23T02:33:36.119Z,539.36
2018-12-23T02:34:36.116Z,542.94
2018-12-23T02:35:36.086Z,540.67
2018-12-23T02:36:36.078Z,539.40
2018-12-23T02:37:36.067Z,537.74
2018-12-23T02:38:36.061Z,540.26
2018-12-23T02:39:36.058Z,538.48
2018-12-23T02:40:36.057Z,542.66
2018-12-23T02:41:36.022Z,539.44
2018-12-23T02:42:36.018Z,539.85
2018-12-23T02:43:36.002Z,541.34
2018-12-23T02:44:35.998Z,536.03
2018-12-23T02:45:35.983Z,536.65
2018-12-23T02:46:36.010Z,540.18
2018-12-23T02:47:35.961Z,540.26
2018-12-23T02:48:35.952Z,540.93
2018-12-23T02:49:35.940Z,541.39
2018-12-23T02:50:35.932Z,541.68
2018-12-23T02:51:35.918Z,537.60
2018-12-23T02:52:35.924Z,540.69
2018-12-23T02:53:38.026Z,536.42
2018-12-23T02:54:35.882Z,542.32
2018-12-23T02:55:35.871Z,539.42
2018-12-23T02:56:35.874Z,542.86
2018-12-23T02:57:35.892Z,535.19
2018-12-23T02:58:35.842Z,542.48
2018-12-23T02:59:35.862Z,535.90
2018-12-23T03:00:35.826Z,534.41
2018-12-23T03:01:35.808Z,542.38
2018-12-23T03:02:35.815Z,538.81
2018-12-23T03:03:35.800Z,541.20
2018-12-23T03:04:35.780Z,537.45
2018-12-23T03:05:35.779Z,540.11
2018-12-23T03:06:35.760Z,541.22
2018-12-23T03:07:35.755Z,535.16
2018-12-23T03:08:35.768Z,541.69
2018-12-23T03:09:35.724Z,541.93
2018-12-23T03:10:35.711Z,534.72
2018-12-23T03:11:35.711Z,540.25
2018-12-23T03:12:35.721Z,536.34
2018-12-23T03:13:35.696Z,536.65
2018-12-23T03:14:36.535Z,542.23
2018-12-23T03:15:36.551Z,540.42
2018-12-23T03:16:35.661Z,539.61
2018-12-23T03:17:35.651Z,541.01
2018-12-23T03:18:35.651Z,538.35
2018-12-23T03:19:35.621Z,537.82
2018-12-23T03:20:35.607Z,538.56
2018-12-23T03:21:35.601Z,541.09
2018-12-23T03:22:37.039Z,538.02
2018-12-23T03:23:35.579Z,536.94
2018-12-23T03:24:35.583Z,540.26
2018-12-23T03:25:35.563Z,535.80
2018-12-23T03:26:35.546Z,537.52
2018-12-23T03:27:35.557Z,541.19
2018-12-23T03:28:35.541Z,538.32
2018-12-23T03:29:35.545Z,536.70
2018-12-23T03:30:35.512Z,540.26
2018-12-23T03:31:35.522Z,541.49
2018-12-23T03:32:35.543Z,537.03
2018-12-23T03:33:35.476Z,538.21
2018-12-23T03:34:35.464Z,534.94
2018-12-23T03:35:35.461Z,536.55
2018-12-23T03:36:35.473Z,535.71
2018-12-23T03:37:35.426Z,541.06
2018-12-23T03:38:35.423Z,539.61
2018-12-23T03:39:35.407Z,537.66
2018-12-23T03:40:35.404Z,537.62
2018-12-23T03:41:35.420Z,538.50
2018-12-23T03:42:36.538Z,540.38
2018-12-23T03:43:35.369Z,541.95
2018-12-23T03:44:35.354Z,540.98
2018-12-23T03:45:35.344Z,540.75
2018-12-23T03:46:35.331Z,536.52
2018-12-23T03:47:35.327Z,536.73
2018-12-23T03:48:35.314Z,539.85
2018-12-23T03:49:35.308Z,541.07
2018-12-23T03:50:35.299Z,544.63
2018-12-23T03:51:36.049Z,539.23
2018-12-23T03:52:35.282Z,540.45
2018-12-23T03:53:36.053Z,540.50
2018-12-23T03:54:35.259Z,541.87
2018-12-23T03:55:35.270Z,538.10
2018-12-23T03:56:35.250Z,538.50
2018-12-23T03:57:35.253Z,539.08
2018-12-23T03:58:35.200Z,540.36
2018-12-23T03:59:35.192Z,538.55
2018-12-23T04:00:35.187Z,540.19
2018-12-23T04:01:35.171Z,541.24
2018-12-23T04:02:35.185Z,540.56
2018-12-23T04:03:35.154Z,538.60
2018-12-23T04:04:35.143Z,542.03
2018-12-23T04:05:35.136Z,541.05
2018-12-23T04:06:35.121Z,541.85
2018-12-23T04:07:35.148Z,538.77
2018-12-23T04:08:35.102Z,537.11
2018-12-23T04:09:35.097Z,539.59
2018-12-23T04:10:35.103Z,544.33
2018-12-23T04:11:35.094Z,536.21
2018-12-23T04:12:35.060Z,542.27
2018-12-23T04:13:35.047Z,543.34
2018-12-23T04:14:35.037Z,536.73
2018-12-23T04:15:35.024Z,540.92
2018-12-23T04:16:35.022Z,541.41
2018-12-23T04:17:35.035Z,536.98
2018-12-23T04:18:34.998Z,540.81
2018-12-23T04:19:34.985Z,541.93
2018-12-23T04:20:34.975Z,539.67
2018-12-23T04:21:34.961Z,540.19
2018-12-23T04:22:34.957Z,535.97
2018-12-23T04:23:34.938Z,538.05
2018-12-23T04:24:34.932Z,537.92
2018-12-23T04:25:34.922Z,541.48
2018-12-23T04:26:34.910Z,541.12
2018-12-23T04:27:34.906Z,541.84
2018-12-23T04:28:35.562Z,536.01
2018-12-23T04:29:36.280Z,541.70
2018-12-23T04:30:34.873Z,542.95
2018-12-23T04:31:34.864Z,538.66
2018-12-23T04:32:34.847Z,541.25
2018-12-23T04:33:34.836Z,536.32
2018-12-23T04:34:34.829Z,539.01
2018-12-23T04:35:34.819Z,540.78
2018-12-23T04:36:34.818Z,541.05
2018-12-23T04:37:34.814Z,540.83
2018-12-23T04:38:34.784Z,540.17
2018-12-23T04:39:34.782Z,543.91
2018-12-23T04:40:34.772Z,542.63
2018-12-23T04:41:34.758Z,539.79
2018-12-23T04:42:34.746Z,539.67
2018-12-23T04:43:34.745Z,537.01
2018-12-23T04:44:34.719Z,537.66
2018-12-23T04:45:34.708Z,536.17
2018-12-23T04:46:34.699Z,539.68
2018-12-23T04:47:34.712Z,540.22
2018-12-23T04:48:34.678Z,541.86
2018-12-23T04:49:34.662Z,538.78
2018-12-23T04:50:34.662Z,541.26
2018-12-23T04:51:34.640Z,538.43
2018-12-23T04:52:34.637Z,542.38
2018-12-23T04:53:34.627Z,538.52
2018-12-23T04:54:34.609Z,541.04
2018-12-23T04:55:34.603Z,543.41
2018-12-23T04:56:34.597Z,535.95
2018-12-23T04:57:34.579Z,544.48
2018-12-23T04:58:34.571Z,538.60
2018-12-23T04:59:34.557Z,539.86
2018-12-23T05:00:34.549Z,540.08
2018-12-23T05:01:34.554Z,538.53
2018-12-23T05:02:34.527Z,539.30
2018-12-23T05:03:42.613Z,540.50
2018-12-23T05:04:35.505Z,540.41
2018-12-23T05:05:34.517Z,539.22
2018-12-23T05:06:43.085Z,541.91
2018-12-23T05:07:35.476Z,540.57
2018-12-23T05:08:34.527Z,537.73
2018-12-23T05:09:34.462Z,540.36
2018-12-23T05:10:34.447Z,540.54
2018-12-23T05:11:34.431Z,537.33
2018-12-23T05:12:34.423Z,538.71
2018-12-23T05:13:34.518Z,540.73
2018-12-23T05:14:34.399Z,541.14
2018-12-23T05:15:34.394Z,540.87
2018-12-23T05:16:34.383Z,543.83
2018-12-23T05:17:34.470Z,541.30
2018-12-23T05:18:34.358Z,537.73
2018-12-23T05:19:34.378Z,541.11
2018-12-23T05:20:34.341Z,539.44
2018-12-23T05:21:34.330Z,538.34
2018-12-23T05:22:34.327Z,541.15
2018-12-23T05:23:34.303Z,540.72
2018-12-23T05:24:34.293Z,533.17
2018-12-23T05:25:34.292Z,537.32
2018-12-23T05:26:34.277Z,539.11
2018-12-23T05:27:34.320Z,538.88
2018-12-23T05:28:34.253Z,537.23
2018-12-23T05:29:34.244Z,538.42
2018-12-23T05:30:34.235Z,538.25
2018-12-23T05:31:34.224Z,533.14
2018-12-23T05:32:34.241Z,534.11
2018-12-23T05:33:34.202Z,533.89
2018-12-23T05:34:34.183Z,534.58
2018-12-23T05:35:34.178Z,533.01
2018-12-23T05:36:34.168Z,538.72
2018-12-23T05:37:34.178Z,530.20
2018-12-23T05:38:34.153Z,534.99
2018-12-23T05:39:34.134Z,530.36
2018-12-23T05:40:34.146Z,531.50
2018-12-23T05:41:34.116Z,535.04
2018-12-23T05:42:34.105Z,530.88
2018-12-23T05:43:34.091Z,531.78
2018-12-23T05:44:34.082Z,531.41
2018-12-23T05:45:34.084Z,530.94
2018-12-23T05:46:34.064Z,529.63
2018-12-23T05:47:34.062Z,525.26
2018-12-23T05:48:34.049Z,529.24
2018-12-23T05:49:34.046Z,530.77
2018-12-23T05:50:34.024Z,532.93
2018-12-23T05:51:34.007Z,531.05
2018-12-23T05:52:34.009Z,529.04
2018-12-23T05:53:34.000Z,532.20
2018-12-23T05:54:34.013Z,534.20
2018-12-23T05:55:33.967Z,532.55
2018-12-23T05:56:33.952Z,531.47
2018-12-23T05:57:33.948Z,528.99
2018-12-23T05:58:33.934Z,531.10
2018-12-23T05:59:33.920Z,532.05
2018-12-23T06:00:33.912Z,532.07
2018-12-23T06:01:33.901Z,527.52
2018-12-23T06:02:33.899Z,532.07
2018-12-23T06:03:33.880Z,529.66
2018-12-23T06:04:33.870Z,529.67
2018-12-23T06:05:34.193Z,524.30
2018-12-23T06:06:33.846Z,529.48
2018-12-23T06:07:33.857Z,528.46
2018-12-23T06:08:33.828Z,526.47
2018-12-23T06:09:33.822Z,525.98
2018-12-23T06:10:33.809Z,530.45
2018-12-23T06:11:33.799Z,531.98
2018-12-23T06:12:33.784Z,533.71
2018-12-23T06:13:33.771Z,528.07
2018-12-23T06:14:33.776Z,530.15
2018-12-23T06:15:33.755Z,530.30
2018-12-23T06:16:33.744Z,527.84
2018-12-23T06:17:33.732Z,531.39
2018-12-23T06:18:33.725Z,530.45
2018-12-23T06:19:33.736Z,531.46
2018-12-23T06:20:33.721Z,531.85
2018-12-23T06:21:33.684Z,530.54
2018-12-23T06:22:33.678Z,530.38
2018-12-23T06:23:33.684Z,530.20
2018-12-23T06:24:33.659Z,531.19
2018-12-23T06:25:33.655Z,531.66
2018-12-23T06:26:33.640Z,530.42
2018-12-23T06:27:33.640Z,528.98
2018-12-23T06:28:33.613Z,531.74
2018-12-23T06:29:33.606Z,530.96
2018-12-23T06:30:33.594Z,532.40
2018-12-23T06:31:33.604Z,528.93
2018-12-23T06:32:33.578Z,535.53
2018-12-23T06:33:33.564Z,531.77
2018-12-23T06:34:33.549Z,529.49
2018-12-23T06:35:33.569Z,531.56
2018-12-23T06:36:33.543Z,529.07
2018-12-23T06:37:33.520Z,528.81
2018-12-23T06:38:34.584Z,529.40
2018-12-23T06:39:33.500Z,533.34
2018-12-23T06:40:33.489Z,533.57
2018-12-23T06:41:33.492Z,530.08
2018-12-23T06:42:33.468Z,530.92
2018-12-23T06:43:33.473Z,530.55
2018-12-23T06:44:33.451Z,532.35
2018-12-23T06:45:33.451Z,530.48
2018-12-23T06:46:33.425Z,532.45
2018-12-23T06:47:33.415Z,532.37
2018-12-23T06:48:35.506Z,526.30
2018-12-23T06:49:34.104Z,529.57
2018-12-23T06:50:33.382Z,530.32
2018-12-23T06:51:33.376Z,532.03
2018-12-23T06:52:33.365Z,533.84
2018-12-23T06:53:33.354Z,529.21
2018-12-23T06:54:33.338Z,530.55
2018-12-23T06:55:33.345Z,528.90
2018-12-23T06:56:33.313Z,529.53
2018-12-23T06:57:33.314Z,531.33
2018-12-23T06:58:33.308Z,528.94
2018-12-23T06:59:33.288Z,535.68
2018-12-23T07:00:33.284Z,538.75
2018-12-23T07:01:33.262Z,533.48
2018-12-23T07:02:33.255Z,534.20
2018-12-23T07:03:33.244Z,528.47
2018-12-23T07:04:34.346Z,531.22
2018-12-23T07:05:33.236Z,534.39
2018-12-23T07:06:33.218Z,534.91
2018-12-23T07:07:33.203Z,532.39
2018-12-23T07:08:33.194Z,532.98
2018-12-23T07:09:33.181Z,534.95
2018-12-23T07:10:33.176Z,535.00
2018-12-23T07:11:33.159Z,532.22
2018-12-23T07:12:33.159Z,532.71
2018-12-23T07:13:33.139Z,533.66
2018-12-23T07:14:33.136Z,534.70
2018-12-23T07:15:33.119Z,530.46
2018-12-23T07:16:33.113Z,533.87
2018-12-23T07:17:33.129Z,533.85
2018-12-23T07:18:33.134Z,536.63
2018-12-23T07:19:33.077Z,530.19
2018-12-23T07:20:33.069Z,536.22
2018-12-23T07:21:33.058Z,530.86
2018-12-23T07:22:33.052Z,536.60
2018-12-23T07:23:33.043Z,531.49
2018-12-23T07:24:33.060Z,531.07
2018-12-23T07:25:33.015Z,533.08
2018-12-23T07:26:33.003Z,534.12
2018-12-23T07:27:32.997Z,529.73
2018-12-23T07:28:32.992Z,537.54
2018-12-23T07:29:33.046Z,532.98
2018-12-23T07:30:32.963Z,535.05
2018-12-23T07:31:33.042Z,534.96
2018-12-23T07:32:32.955Z,537.14
2018-12-23T07:33:32.927Z,532.07
2018-12-23T07:34:32.930Z,537.66
2018-12-23T07:35:32.933Z,533.19
2018-12-23T07:36:32.953Z,536.51
2018-12-23T07:37:32.887Z,533.43
2018-12-23T07:38:32.880Z,535.81
2018-12-23T07:39:32.864Z,535.22
2018-12-23T07:40:32.856Z,540.21
2018-12-23T07:41:32.862Z,536.83
2018-12-23T07:42:32.941Z,537.82
2018-12-23T07:43:32.824Z,536.40
2018-12-23T07:44:32.812Z,534.77
2018-12-23T07:45:32.803Z,530.39
2018-12-23T07:46:32.791Z,536.99
2018-12-23T07:47:32.815Z,537.76
2018-12-23T07:48:32.816Z,535.82
2018-12-23T07:49:32.768Z,533.91
2018-12-23T07:50:33.173Z,538.41
2018-12-23T07:51:32.742Z,536.32
2018-12-23T07:52:32.738Z,530.63
2018-12-23T07:53:32.727Z,532.78
2018-12-23T07:54:32.709Z,534.35
2018-12-23T07:55:32.699Z,539.25
2018-12-23T07:56:32.683Z,534.49
2018-12-23T07:57:32.678Z,535.30
2018-12-23T07:58:32.663Z,533.34
2018-12-23T07:59:32.689Z,537.00
2018-12-23T08:00:32.647Z,531.41
2018-12-23T08:01:32.632Z,538.20
2018-12-23T08:02:32.622Z,532.93
2018-12-23T08:03:32.621Z,533.49
2018-12-23T08:04:32.641Z,530.66
2018-12-23T08:05:32.624Z,532.92
2018-12-23T08:06:32.638Z,532.84
2018-12-23T08:07:36.287Z,534.93
2018-12-23T08:08:32.595Z,536.60
2018-12-23T08:09:32.589Z,535.58
2018-12-23T08:10:32.539Z,537.17
2018-12-23T08:11:32.538Z,534.96
2018-12-23T08:12:32.525Z,528.85
2018-12-23T08:13:32.507Z,531.02
2018-12-23T08:14:32.514Z,536.42
2018-12-23T08:15:32.534Z,536.86
2018-12-23T08:16:32.476Z,536.79
2018-12-23T08:17:32.469Z,531.81
2018-12-23T08:18:32.465Z,533.10
2018-12-23T08:19:32.441Z,535.98
2018-12-23T08:20:32.436Z,536.67
2018-12-23T08:21:32.425Z,536.41
2018-12-23T08:22:32.411Z,541.05
2018-12-23T08:23:32.416Z,531.27
2018-12-23T08:24:32.395Z,538.21
2018-12-23T08:25:35.765Z,535.84
2018-12-23T08:26:32.389Z,533.93
2018-12-23T08:27:32.357Z,537.63
2018-12-23T08:28:32.347Z,535.98
2018-12-23T08:29:32.409Z,530.52
2018-12-23T08:30:32.328Z,533.67
2018-12-23T08:31:32.408Z,535.95
2018-12-23T08:32:32.303Z,532.66
2018-12-23T08:33:32.309Z,533.72
2018-12-23T08:34:32.286Z,535.38
2018-12-23T08:35:32.277Z,535.23
2018-12-23T08:36:32.330Z,537.68
2018-12-23T08:37:32.250Z,534.49
2018-12-23T08:38:32.260Z,533.37
2018-12-23T08:39:32.233Z,540.61
2018-12-23T08:40:32.220Z,533.80
2018-12-23T08:41:33.092Z,536.69
2018-12-23T08:42:32.211Z,534.23
2018-12-23T08:43:32.191Z,535.95
2018-12-23T08:44:32.236Z,535.55
2018-12-23T08:45:32.172Z,540.42
2018-12-23T08:46:39.081Z,536.79
2018-12-23T08:47:33.149Z,536.59
2018-12-23T08:48:32.139Z,537.65
2018-12-23T08:49:32.127Z,535.50
2018-12-23T08:50:32.118Z,536.18
2018-12-23T08:51:32.108Z,537.47
2018-12-23T08:52:32.097Z,533.37
2018-12-23T08:53:32.092Z,539.73
2018-12-23T08:54:32.074Z,535.54
2018-12-23T08:55:32.064Z,534.82
2018-12-23T08:56:32.054Z,533.70
2018-12-23T08:57:32.044Z,539.02
2018-12-23T08:58:32.037Z,534.57
2018-12-23T08:59:32.025Z,534.64
2018-12-23T09:00:32.024Z,538.75
2018-12-23T09:01:32.005Z,533.07
2018-12-23T09:02:31.993Z,535.73
2018-12-23T09:03:31.974Z,539.21
2018-12-23T09:04:31.968Z,533.69
2018-12-23T09:05:31.969Z,535.01
2018-12-23T09:06:31.949Z,531.31
2018-12-23T09:07:31.943Z,528.95
2018-12-23T09:08:31.946Z,536.68
2018-12-23T09:09:31.931Z,535.89
2018-12-23T09:10:31.916Z,536.83
2018-12-23T09:11:31.900Z,534.29
2018-12-23T09:12:31.885Z,539.80
2018-12-23T09:13:31.874Z,536.94
2018-12-23T09:14:31.880Z,538.46
2018-12-23T09:15:31.857Z,534.99
2018-12-23T09:16:31.843Z,535.38
2018-12-23T09:17:32.105Z,537.69
2018-12-23T09:18:31.819Z,540.57
2018-12-23T09:19:31.809Z,533.71
2018-12-23T09:20:31.820Z,533.62
2018-12-23T09:21:31.791Z,540.51
2018-12-23T09:22:31.776Z,534.73
2018-12-23T09:23:31.772Z,535.52
2018-12-23T09:24:31.763Z,535.22
2018-12-23T09:25:31.753Z,536.60
2018-12-23T09:26:31.762Z,529.52
2018-12-23T09:27:31.723Z,537.42
2018-12-23T09:28:31.723Z,540.16
2018-12-23T09:29:31.708Z,538.87
2018-12-23T09:30:31.725Z,540.94
2018-12-23T09:31:31.684Z,540.52
2018-12-23T09:32:31.671Z,534.55
2018-12-23T09:33:31.673Z,535.54
2018-12-23T09:34:31.669Z,535.47
2018-12-23T09:35:31.653Z,534.80
2018-12-23T09:36:31.630Z,541.71
2018-12-23T09:37:31.617Z,533.75
2018-12-23T09:38:31.623Z,536.68
2018-12-23T09:39:31.593Z,534.68
2018-12-23T09:40:31.601Z,536.17
2018-12-23T09:41:31.588Z,532.97
2018-12-23T09:42:31.567Z,536.72
2018-12-23T09:43:31.561Z,536.55
2018-12-23T09:44:31.545Z,536.43
2018-12-23T09:45:31.535Z,535.36
2018-12-23T09:46:31.541Z,536.29
2018-12-23T09:47:31.519Z,537.23
2018-12-23T09:48:31.506Z,534.10
2018-12-23T09:49:31.556Z,537.76
2018-12-23T09:50:31.481Z,536.85
2018-12-23T09:51:31.486Z,539.97
2018-12-23T09:52:31.489Z,535.39
2018-12-23T09:53:31.467Z,532.42
2018-12-23T09:54:31.453Z,540.21
2018-12-23T09:55:31.430Z,535.54
2018-12-23T09:56:31.458Z,533.77
2018-12-23T09:57:31.461Z,537.55
2018-12-23T09:58:31.402Z,535.83
2018-12-23T09:59:31.395Z,536.05
2018-12-23T10:00:31.388Z,534.09
2018-12-23T10:01:31.368Z,528.99
2018-12-23T10:02:33.456Z,532.18
2018-12-23T10:03:31.348Z,532.43
2018-12-23T10:04:31.334Z,534.56
2018-12-23T10:05:31.339Z,534.34
2018-12-23T10:06:31.312Z,528.91
2018-12-23T10:07:31.302Z,534.26
2018-12-23T10:08:31.295Z,536.82
2018-12-23T10:09:31.282Z,538.60
2018-12-23T10:10:31.272Z,538.85
2018-12-23T10:11:31.358Z,539.37
2018-12-23T10:12:31.254Z,541.65
2018-12-23T10:13:31.275Z,536.79
2018-12-23T10:14:31.229Z,534.70
2018-12-23T10:15:31.220Z,533.64
2018-12-23T10:16:31.208Z,534.41
2018-12-23T10:17:31.205Z,536.00
2018-12-23T10:18:31.190Z,538.75
2018-12-23T10:19:31.192Z,537.91
2018-12-23T10:20:31.176Z,535.67
2018-12-23T10:21:31.155Z,536.82
2018-12-23T10:22:31.146Z,537.44
2018-12-23T10:23:31.137Z,535.14
2018-12-23T10:24:31.143Z,536.14
2018-12-23T10:25:31.112Z,540.27
2018-12-23T10:26:31.112Z,537.54
2018-12-23T10:27:31.101Z,535.46
2018-12-23T10:28:31.091Z,537.64
2018-12-23T10:29:31.075Z,535.95
2018-12-23T10:30:31.060Z,534.78
2018-12-23T10:31:31.061Z,537.92
2018-12-23T10:32:31.051Z,535.71
2018-12-23T10:33:31.035Z,537.14
2018-12-23T10:34:33.086Z,539.80
2018-12-23T10:35:31.012Z,536.85
2018-12-23T10:36:30.993Z,538.68
2018-12-23T10:37:31.092Z,545.01
2018-12-23T10:38:31.016Z,536.47
2018-12-23T10:39:30.967Z,530.47
2018-12-23T10:40:30.955Z,532.85
2018-12-23T10:41:30.953Z,538.60
2018-12-23T10:42:30.936Z,531.72
2018-12-23T10:43:30.931Z,535.89
2018-12-23T10:44:30.996Z,535.12
2018-12-23T10:45:30.907Z,533.91
2018-12-23T10:46:30.895Z,537.17
2018-12-23T10:47:30.877Z,534.76
2018-12-23T10:48:30.868Z,538.48
2018-12-23T10:49:30.864Z,535.94
2018-12-23T10:50:30.855Z,538.21
2018-12-23T10:51:30.839Z,541.13
2018-12-23T10:52:30.852Z,541.40
2018-12-23T10:53:30.851Z,543.20
2018-12-23T10:54:30.809Z,533.50
2018-12-23T10:55:30.965Z,539.69
2018-12-23T10:56:30.793Z,540.66
2018-12-23T10:57:30.781Z,534.79
2018-12-23T10:58:30.767Z,542.19
2018-12-23T10:59:30.757Z,537.14
2018-12-23T11:00:30.754Z,541.42
2018-12-23T11:01:30.731Z,541.36
2018-12-23T11:02:30.726Z,534.07
2018-12-23T11:03:30.709Z,539.94
2018-12-23T11:04:30.707Z,537.47
2018-12-23T11:05:30.689Z,537.87
2018-12-23T11:06:30.686Z,539.91
2018-12-23T11:07:30.707Z,536.90
2018-12-23T11:08:30.668Z,539.21
2018-12-23T11:09:30.651Z,536.17
2018-12-23T11:10:30.734Z,536.68
2018-12-23T11:11:30.630Z,539.51
2018-12-23T11:12:30.636Z,537.10
2018-12-23T11:13:30.634Z,537.19
2018-12-23T11:14:30.599Z,538.23
2018-12-23T11:15:30.591Z,536.17
2018-12-23T11:16:30.579Z,534.74
2018-12-23T11:17:30.575Z,537.29
2018-12-23T11:18:30.558Z,536.75
2018-12-23T11:19:30.574Z,533.36
2018-12-23T11:20:30.555Z,536.42
2018-12-23T11:21:31.705Z,544.66
2018-12-23T11:22:30.512Z,536.13
2018-12-23T11:23:30.498Z,536.48
2018-12-23T11:24:30.495Z,538.81
2018-12-23T11:25:30.482Z,538.48
2018-12-23T11:26:30.470Z,538.62
2018-12-23T11:27:30.459Z,538.44
2018-12-23T11:28:30.449Z,532.25
2018-12-23T11:29:30.441Z,534.33
2018-12-23T11:30:30.432Z,538.45
2018-12-23T11:31:30.422Z,536.35
2018-12-23T11:32:30.414Z,533.68
2018-12-23T11:33:30.398Z,532.98
2018-12-23T11:34:30.391Z,541.26
2018-12-23T11:35:30.408Z,539.60
2018-12-23T11:36:30.375Z,540.31
2018-12-23T11:37:30.361Z,541.99
2018-12-23T11:38:35.381Z,536.47
2018-12-23T11:39:31.330Z,539.57
2018-12-23T11:40:30.326Z,538.94
2018-12-23T11:41:30.310Z,534.42
2018-12-23T11:42:30.327Z,536.97
2018-12-23T11:43:30.293Z,535.34
2018-12-23T11:44:30.283Z,540.34
2018-12-23T11:45:30.270Z,536.69
2018-12-23T11:46:30.260Z,536.17
2018-12-23T11:47:30.255Z,539.54
2018-12-23T11:48:30.254Z,538.83
2018-12-23T11:49:30.227Z,538.24
2018-12-23T11:50:30.216Z,538.95
2018-12-23T11:51:30.209Z,541.56
2018-12-23T11:52:30.198Z,539.68
2018-12-23T11:53:30.189Z,536.69
2018-12-23T11:54:30.187Z,537.71
2018-12-23T11:55:30.171Z,537.68
2018-12-23T11:56:30.156Z,538.93
2018-12-23T11:57:30.143Z,538.00
2018-12-23T11:58:30.137Z,537.29
2018-12-23T11:59:30.123Z,540.54
2018-12-23T12:00:30.113Z,539.94
2018-12-23T12:01:30.105Z,535.36
2018-12-23T12:02:30.123Z,538.17
2018-12-23T12:03:30.075Z,537.21
2018-12-23T12:04:30.065Z,537.01
2018-12-23T12:05:30.064Z,537.77
2018-12-23T12:06:30.054Z,537.31
2018-12-23T12:07:30.034Z,543.92
2018-12-23T12:08:30.025Z,537.66
2018-12-23T12:09:30.057Z,533.77
2018-12-23T12:10:30.010Z,536.38
2018-12-23T12:11:29.999Z,532.86
2018-12-23T12:12:29.987Z,538.02
2018-12-23T12:13:29.983Z,538.43
2018-12-23T12:14:29.979Z,537.13
2018-12-23T12:15:29.955Z,539.62
2018-12-23T12:16:29.942Z,535.75
2018-12-23T12:17:29.936Z,538.43
2018-12-23T12:18:29.964Z,542.54
2018-12-23T12:19:29.916Z,536.00
2018-12-23T12:20:29.903Z,537.91
2018-12-23T12:21:29.899Z,541.00
2018-12-23T12:22:29.881Z,539.54
2018-12-23T12:23:29.898Z,541.39
2018-12-23T12:24:29.861Z,537.83
2018-12-23T12:25:29.858Z,538.90
2018-12-23T12:26:29.955Z,535.06
2018-12-23T12:27:29.827Z,536.65
2018-12-23T12:28:29.818Z,537.76